Sunmi — C6WS3 — position and weather

sailwx.info

Track history (hours):
 
Tides and Currents Weather Stations Pressure Air Temp Water Temp Dewpoint Dewpoint Depression Visibility Wind Speed Wind Dir Waves Ship Positions

Sunmi

Last reported at 2018-Jun-18 11:30 UTC. Time now 2018-Jun-18 11:36 UTC.
Position N 51°20' E 003°49'.

Length 90 m; draft 5.5 m.

Type: Ship. MMSI: 309937000.

Date/timePositionNaut miles runAvg speedWind from/ knotsBaromVisibWave heightAir tempDewpointWater temp
2018-Jun-18 11:30N 51°20' E 003°49'3 6.2
2018-Jun-18 11:00N 51°22' E 003°45'4 8.7
2018-Jun-18 10:30N 51°25' E 003°40'4 7.8
2018-Jun-18 10:00N 51°26' E 003°34'4 7.1
2018-Jun-18 09:30N 51°29' E 003°30'4 8.6
2018-Jun-18 09:00N 51°32' E 003°25'5 8.7
2018-Jun-18 08:29N 51°36' E 003°22'5 9.6
2018-Jun-18 08:00N 51°40' E 003°18'4 8.6
2018-Jun-18 07:29N 51°44' E 003°15'7 5.5
2018-Jun-18 06:18N 51°50' E 003°11'1 2.8
2018-Jun-18 05:50N 51°49' E 003°12'4 1.8
2018-Jun-18 03:33N 51°51' E 003°17'0 3.5
2018-Jun-18 03:30N 51°51' E 003°17'5 6.3
2018-Jun-18 02:45N 51°56' E 003°18'6 9.8
2018-Jun-18 02:09N 52°02' E 003°20'210.1
2018-Jun-18 01:59N 52°04' E 003°20'610.4
2018-Jun-18 01:26N 52°09' E 003°22'510.7
2018-Jun-18 01:00N 52°14' E 003°23'510.9
2018-Jun-18 00:30N 52°19' E 003°24'611.1
2018-Jun-17 23:58N 52°25' E 003°28'511.4
2018-Jun-17 23:30N 52°29' E 003°34'611.3
2018-Jun-17 23:00N 52°33' E 003°40'511.1
2018-Jun-17 22:30N 52°37' E 003°45'810.7
2018-Jun-17 21:45N 52°44' E 003°53'310.3
2018-Jun-17 21:25N 52°47' E 003°55'11 9.7
2018-Jun-17 20:15N 52°58' E 004°02'327 6.4
2018-Jun-15 17:24N 55°56' E 011°53'4 7.2
2018-Jun-15 16:54N 55°57' E 011°59'1 3.4
2018-Jun-15 16:30N 55°58' E 012°01'0 0.0
2018-Jun-15 06:25N 55°58' E 012°01'0 0.0
2018-Jun-15 04:37N 55°58' E 012°01'0 0.0
2018-Jun-15 04:28N 55°58' E 012°01'0 0.0
2018-Jun-15 03:46N 55°58' E 012°01'0 0.0
2018-Jun-15 03:19N 55°58' E 012°01'0 0.0
2018-Jun-15 02:52N 55°58' E 012°01'0 0.0
2018-Jun-15 02:28N 55°58' E 012°01'0 0.0
2018-Jun-15 01:46N 55°58' E 012°01'0 0.0
2018-Jun-15 01:25N 55°58' E 012°01'0 0.0
2018-Jun-15 00:58N 55°58' E 012°01'0 0.0
2018-Jun-15 00:28N 55°58' E 012°01'0 0.0
2018-Jun-14 23:52N 55°58' E 012°01'0 0.0
2018-Jun-14 23:28N 55°58' E 012°01'0 0.0
2018-Jun-14 22:58N 55°58' E 012°01'0 0.0
2018-Jun-14 22:22N 55°58' E 012°01'0 0.0
2018-Jun-14 21:46N 55°58' E 012°01'0 0.0
2018-Jun-14 21:28N 55°58' E 012°01'0 0.0
2018-Jun-14 20:40N 55°58' E 012°01'0 0.0
2018-Jun-14 20:25N 55°58' E 012°01'0 0.0
2018-Jun-14 19:49N 55°58' E 012°01'0 0.0
2018-Jun-14 19:28N 55°58' E 012°01'0 0.0
2018-Jun-14 18:58N 55°58' E 012°01'0 0.0
2018-Jun-14 18:25N 55°58' E 012°01'0 0.0
2018-Jun-14 17:46N 55°58' E 012°01'0 0.0
2018-Jun-14 17:19N 55°58' E 012°01'0 0.0
2018-Jun-14 16:58N 55°58' E 012°01'0 0.0
2018-Jun-14 16:22N 55°58' E 012°01'0 0.0
2018-Jun-14 15:40N 55°58' E 012°01'0 0.0
2018-Jun-14 15:16N 55°58' E 012°01'0 0.0
2018-Jun-14 14:37N 55°58' E 012°01'0 0.0
2018-Jun-14 14:22N 55°58' E 012°01'0 0.0
2018-Jun-14 13:07N 55°58' E 012°01'0 0.1
2018-Jun-14 13:00N 55°58' E 012°01'1 1.2
2018-Jun-14 12:29N 55°57' E 012°00'6 8.3
2018-Jun-14 11:44N 55°55' E 011°50'11710.0
2018-Jun-14 00:00N 57°46' E 010°44'2213.0
2018-Jun-13 22:16N 57°40' E 010°04'345 8.0
2018-Jun-12 02:56N 52°56' E 004°19'2212.0
2018-Jun-12 01:03N 52°37' E 004°01'512.0
2018-Jun-12 00:37N 52°32' E 003°57'211.7
2018-Jun-12 00:26N 52°30' E 003°55'511.7
2018-Jun-12 00:00N 52°25' E 003°54'611.3
2018-Jun-11 23:30N 52°20' E 003°52'511.0
2018-Jun-11 23:01N 52°14' E 003°53'510.9
2018-Jun-11 22:30N 52°09' E 003°55'510.4
2018-Jun-11 22:00N 52°04' E 003°54'4 8.8
2018-Jun-11 21:31N 52°01' E 003°59'612.7
2018-Jun-11 21:00N 51°58' E 004°09'612.8
2018-Jun-11 20:30N 51°54' E 004°17'1 1.4
2018-Jun-11 19:59N 51°53' E 004°17'0 0.0
2018-Jun-11 19:29N 51°53' E 004°17'0 0.0
2018-Jun-11 18:59N 51°53' E 004°17'0 0.0
2018-Jun-11 18:29N 51°53' E 004°17'0 0.0
2018-Jun-11 17:59N 51°53' E 004°17'0 0.0
2018-Jun-11 17:26N 51°53' E 004°17'0 0.0
2018-Jun-11 16:56N 51°53' E 004°17'0 0.0
2018-Jun-11 16:29N 51°53' E 004°17'0 0.0
2018-Jun-11 15:59N 51°53' E 004°17'0 0.0
2018-Jun-11 15:29N 51°53' E 004°17'0 0.0
2018-Jun-11 14:59N 51°53' E 004°17'0 0.0
2018-Jun-11 14:29N 51°53' E 004°17'0 0.0
2018-Jun-11 13:59N 51°53' E 004°17'0 0.0
2018-Jun-11 13:29N 51°53' E 004°17'0 0.0
2018-Jun-11 12:56N 51°53' E 004°17'0 0.0
2018-Jun-11 12:29N 51°53' E 004°17'0 0.0
2018-Jun-11 11:59N 51°53' E 004°17'0 0.0
2018-Jun-11 11:23N 51°53' E 004°17'0 0.0
2018-Jun-11 10:59N 51°53' E 004°17'0 0.0
2018-Jun-11 10:26N 51°53' E 004°17'0 0.0
2018-Jun-11 09:59N 51°53' E 004°17'0 0.0
2018-Jun-11 09:26N 51°53' E 004°17'0 0.0
2018-Jun-11 08:59N 51°53' E 004°17'0 0.0
2018-Jun-11 08:29N 51°53' E 004°17'0 0.0
2018-Jun-11 07:56N 51°53' E 004°17'0 0.0
2018-Jun-11 07:29N 51°53' E 004°17'0 0.0
2018-Jun-11 06:59N 51°53' E 004°17'0 0.0
2018-Jun-11 06:26N 51°53' E 004°17'0 0.0
2018-Jun-11 05:53N 51°53' E 004°17'0 0.0
2018-Jun-11 05:29N 51°53' E 004°17'0 0.0
2018-Jun-11 04:59N 51°53' E 004°17'0 0.0
2018-Jun-11 04:23N 51°53' E 004°17'0 0.0
2018-Jun-11 03:59N 51°53' E 004°17'0 0.0
2018-Jun-11 03:29N 51°53' E 004°17'0 0.0
2018-Jun-11 02:53N 51°53' E 004°17'0 0.0
2018-Jun-11 02:29N 51°53' E 004°17'0 0.0
2018-Jun-11 01:59N 51°53' E 004°17'0 0.0
2018-Jun-11 01:26N 51°53' E 004°17'0 0.0
2018-Jun-11 00:59N 51°53' E 004°17'0 0.0
2018-Jun-11 00:26N 51°53' E 004°17'0 0.0
2018-Jun-10 23:59N 51°53' E 004°17'0 0.0
2018-Jun-10 23:23N 51°53' E 004°17'0 0.0
2018-Jun-10 22:56N 51°53' E 004°17'0 0.0
2018-Jun-10 22:23N 51°53' E 004°17'0 0.0
2018-Jun-10 21:59N 51°53' E 004°17'0 0.0
2018-Jun-10 21:20N 51°53' E 004°17'0 0.0
2018-Jun-10 20:59N 51°53' E 004°17'0 0.0
2018-Jun-10 20:29N 51°53' E 004°17'0 0.0
2018-Jun-10 20:00N 51°53' E 004°17'0 0.0
2018-Jun-10 19:30N 51°53' E 004°17'0 0.0
2018-Jun-10 19:00N 51°53' E 004°17'1 2.1
2018-Jun-10 18:30N 51°54' E 004°18'4 8.0
2018-Jun-10 18:00N 51°56' E 004°13'4 8.0
2018-Jun-10 17:30N 51°58' E 004°08'4 7.9
2018-Jun-10 17:01N 51°60' E 004°02'4 8.7
2018-Jun-10 16:30N 52°01' E 003°55'4 9.0
2018-Jun-10 16:00N 52°02' E 003°48'611.3
2018-Jun-10 15:30N 52°08' E 003°47'611.0
2018-Jun-10 15:00N 52°14' E 003°47'1010.2
2018-Jun-10 14:00N 52°24' E 003°49'5 9.5
2018-Jun-10 13:30N 52°28' E 003°51'5 9.4
2018-Jun-10 13:00N 52°33' E 003°52'5710.3
2018-Jun-10 07:32N 53°24' E 004°33'011.9
2018-Jun-10 07:30N 53°24' E 004°33'611.5
2018-Jun-10 06:59N 53°30' E 004°36'511.4
2018-Jun-10 06:30N 53°35' E 004°39'610.9
2018-Jun-10 06:00N 53°40' E 004°42'8310.7
2018-Jun-09 22:17N 54°53' E 005°51'1610.9
2018-Jun-09 20:50N 55°06' E 006°06'410.8
2018-Jun-09 20:29N 55°09' E 006°09'5810.9
2018-Jun-09 15:07N 55°59' E 007°04'2310.7
2018-Jun-09 12:57N 56°19' E 007°24'510.5
2018-Jun-09 12:30N 56°23' E 007°29'6910.5
2018-Jun-09 05:59N 57°20' E 008°37'610.2
2018-Jun-09 05:26N 57°25' E 008°43'510.7
2018-Jun-09 05:00N 57°29' E 008°47'510.8
2018-Jun-09 04:30N 57°34' E 008°53'510.8
2018-Jun-09 04:00N 57°38' E 008°58'610.7
2018-Jun-09 03:28N 57°43' E 009°03'1710.5
2018-Jun-09 01:51N 57°58' E 009°20'411.0
2018-Jun-09 01:30N 58°01' E 009°24'611.1
2018-Jun-09 01:00N 58°05' E 009°30'510.9
2018-Jun-09 00:30N 58°10' E 009°36'510.4
2018-Jun-09 00:00N 58°15' E 009°41'510.2
2018-Jun-08 23:30N 58°19' E 009°46'510.3
2018-Jun-08 23:00N 58°23' E 009°51'510.3
2018-Jun-08 22:30N 58°28' E 009°56'510.6
2018-Jun-08 22:00N 58°32' E 010°01'510.6
2018-Jun-08 21:30N 58°37' E 010°06'510.6
2018-Jun-08 21:00N 58°41' E 010°11'510.7
2018-Jun-08 20:30N 58°45' E 010°18'510.9
2018-Jun-08 20:00N 58°50' E 010°24'510.8
2018-Jun-08 19:30N 58°55' E 010°29'510.6
2018-Jun-08 19:00N 58°59' E 010°34'510.9
2018-Jun-08 18:30N 59°05' E 010°36'510.5
2018-Jun-08 18:00N 59°10' E 010°38'510.4
2018-Jun-08 17:30N 59°15' E 010°36'510.4
2018-Jun-08 17:00N 59°20' E 010°35'510.5
2018-Jun-08 16:30N 59°25' E 010°33'510.4
2018-Jun-08 16:00N 59°30' E 010°27'510.0
2018-Jun-08 15:30N 59°34' E 010°25'5 9.6
2018-Jun-08 15:00N 59°39' E 010°24'510.1
2018-Jun-08 14:30N 59°43' E 010°18'2 4.5
2018-Jun-08 14:00N 59°45' E 010°15'0 0.1
2018-Jun-08 13:29N 59°45' E 010°15'0 0.0
2018-Jun-08 12:59N 59°45' E 010°15'0 0.0
2018-Jun-08 12:29N 59°45' E 010°15'0 0.0
2018-Jun-08 11:59N 59°45' E 010°15'  
Track history (hours):
 
Tides and Currents Weather Stations Pressure Air Temp Water Temp Dewpoint Dewpoint Depression Visibility Wind Speed Wind Dir Waves Ship Positions

Sunmi

Last reported at 2018-Jun-18 11:30 UTC. Time now 2018-Jun-18 11:36 UTC.
Position N 51°20' E 003°49'.

Length 90 m; draft 5.5 m.

Type: Ship. MMSI: 309937000.

Date/timePositionNaut miles runAvg speedWind from/ knotsBaromVisibWave heightAir tempDewpointWater temp
2018-Jun-18 11:30N 51°20' E 003°49'3 6.2
2018-Jun-18 11:00N 51°22' E 003°45'4 8.7
2018-Jun-18 10:30N 51°25' E 003°40'4 7.8
2018-Jun-18 10:00N 51°26' E 003°34'4 7.1
2018-Jun-18 09:30N 51°29' E 003°30'4 8.6
2018-Jun-18 09:00N 51°32' E 003°25'5 8.7
2018-Jun-18 08:29N 51°36' E 003°22'5 9.6
2018-Jun-18 08:00N 51°40' E 003°18'4 8.6
2018-Jun-18 07:29N 51°44' E 003°15'7 5.5
2018-Jun-18 06:18N 51°50' E 003°11'1 2.8
2018-Jun-18 05:50N 51°49' E 003°12'4 1.8
2018-Jun-18 03:33N 51°51' E 003°17'0 3.5
2018-Jun-18 03:30N 51°51' E 003°17'5 6.3
2018-Jun-18 02:45N 51°56' E 003°18'6 9.8
2018-Jun-18 02:09N 52°02' E 003°20'210.1
2018-Jun-18 01:59N 52°04' E 003°20'610.4
2018-Jun-18 01:26N 52°09' E 003°22'510.7
2018-Jun-18 01:00N 52°14' E 003°23'510.9
2018-Jun-18 00:30N 52°19' E 003°24'611.1
2018-Jun-17 23:58N 52°25' E 003°28'511.4
2018-Jun-17 23:30N 52°29' E 003°34'611.3
2018-Jun-17 23:00N 52°33' E 003°40'511.1
2018-Jun-17 22:30N 52°37' E 003°45'810.7
2018-Jun-17 21:45N 52°44' E 003°53'310.3
2018-Jun-17 21:25N 52°47' E 003°55'11 9.7
2018-Jun-17 20:15N 52°58' E 004°02'327 6.4
2018-Jun-15 17:24N 55°56' E 011°53'4 7.2
2018-Jun-15 16:54N 55°57' E 011°59'1 3.4
2018-Jun-15 16:30N 55°58' E 012°01'0 0.0
2018-Jun-15 06:25N 55°58' E 012°01'0 0.0
2018-Jun-15 04:37N 55°58' E 012°01'0 0.0
2018-Jun-15 04:28N 55°58' E 012°01'0 0.0
2018-Jun-15 03:46N 55°58' E 012°01'0 0.0
2018-Jun-15 03:19N 55°58' E 012°01'0 0.0
2018-Jun-15 02:52N 55°58' E 012°01'0 0.0
2018-Jun-15 02:28N 55°58' E 012°01'0 0.0
2018-Jun-15 01:46N 55°58' E 012°01'0 0.0
2018-Jun-15 01:25N 55°58' E 012°01'0 0.0
2018-Jun-15 00:58N 55°58' E 012°01'0 0.0
2018-Jun-15 00:28N 55°58' E 012°01'0 0.0
2018-Jun-14 23:52N 55°58' E 012°01'0 0.0
2018-Jun-14 23:28N 55°58' E 012°01'0 0.0
2018-Jun-14 22:58N 55°58' E 012°01'0 0.0
2018-Jun-14 22:22N 55°58' E 012°01'0 0.0
2018-Jun-14 21:46N 55°58' E 012°01'0 0.0
2018-Jun-14 21:28N 55°58' E 012°01'0 0.0
2018-Jun-14 20:40N 55°58' E 012°01'0 0.0
2018-Jun-14 20:25N 55°58' E 012°01'0 0.0
2018-Jun-14 19:49N 55°58' E 012°01'0 0.0
2018-Jun-14 19:28N 55°58' E 012°01'0 0.0
2018-Jun-14 18:58N 55°58' E 012°01'0 0.0
2018-Jun-14 18:25N 55°58' E 012°01'0 0.0
2018-Jun-14 17:46N 55°58' E 012°01'0 0.0
2018-Jun-14 17:19N 55°58' E 012°01'0 0.0
2018-Jun-14 16:58N 55°58' E 012°01'0 0.0
2018-Jun-14 16:22N 55°58' E 012°01'0 0.0
2018-Jun-14 15:40N 55°58' E 012°01'0 0.0
2018-Jun-14 15:16N 55°58' E 012°01'0 0.0
2018-Jun-14 14:37N 55°58' E 012°01'0 0.0
2018-Jun-14 14:22N 55°58' E 012°01'0 0.0
2018-Jun-14 13:07N 55°58' E 012°01'0 0.1
2018-Jun-14 13:00N 55°58' E 012°01'1 1.2
2018-Jun-14 12:29N 55°57' E 012°00'6 8.3
2018-Jun-14 11:44N 55°55' E 011°50'11710.0
2018-Jun-14 00:00N 57°46' E 010°44'2213.0
2018-Jun-13 22:16N 57°40' E 010°04'345 8.0
2018-Jun-12 02:56N 52°56' E 004°19'2212.0
2018-Jun-12 01:03N 52°37' E 004°01'512.0
2018-Jun-12 00:37N 52°32' E 003°57'211.7
2018-Jun-12 00:26N 52°30' E 003°55'511.7
2018-Jun-12 00:00N 52°25' E 003°54'611.3
2018-Jun-11 23:30N 52°20' E 003°52'511.0
2018-Jun-11 23:01N 52°14' E 003°53'510.9
2018-Jun-11 22:30N 52°09' E 003°55'510.4
2018-Jun-11 22:00N 52°04' E 003°54'4 8.8
2018-Jun-11 21:31N 52°01' E 003°59'612.7
2018-Jun-11 21:00N 51°58' E 004°09'612.8
2018-Jun-11 20:30N 51°54' E 004°17'1 1.4
2018-Jun-11 19:59N 51°53' E 004°17'0 0.0
2018-Jun-11 19:29N 51°53' E 004°17'0 0.0
2018-Jun-11 18:59N 51°53' E 004°17'0 0.0
2018-Jun-11 18:29N 51°53' E 004°17'0 0.0
2018-Jun-11 17:59N 51°53' E 004°17'0 0.0
2018-Jun-11 17:26N 51°53' E 004°17'0 0.0
2018-Jun-11 16:56N 51°53' E 004°17'0 0.0
2018-Jun-11 16:29N 51°53' E 004°17'0 0.0
2018-Jun-11 15:59N 51°53' E 004°17'0 0.0
2018-Jun-11 15:29N 51°53' E 004°17'0 0.0
2018-Jun-11 14:59N 51°53' E 004°17'0 0.0
2018-Jun-11 14:29N 51°53' E 004°17'0 0.0
2018-Jun-11 13:59N 51°53' E 004°17'0 0.0
2018-Jun-11 13:29N 51°53' E 004°17'0 0.0
2018-Jun-11 12:56N 51°53' E 004°17'0 0.0
2018-Jun-11 12:29N 51°53' E 004°17'0 0.0
2018-Jun-11 11:59N 51°53' E 004°17'0 0.0
2018-Jun-11 11:23N 51°53' E 004°17'0 0.0
2018-Jun-11 10:59N 51°53' E 004°17'0 0.0
2018-Jun-11 10:26N 51°53' E 004°17'0 0.0
2018-Jun-11 09:59N 51°53' E 004°17'0 0.0
2018-Jun-11 09:26N 51°53' E 004°17'0 0.0
2018-Jun-11 08:59N 51°53' E 004°17'0 0.0
2018-Jun-11 08:29N 51°53' E 004°17'0 0.0
2018-Jun-11 07:56N 51°53' E 004°17'0 0.0
2018-Jun-11 07:29N 51°53' E 004°17'0 0.0
2018-Jun-11 06:59N 51°53' E 004°17'0 0.0
2018-Jun-11 06:26N 51°53' E 004°17'0 0.0
2018-Jun-11 05:53N 51°53' E 004°17'0 0.0
2018-Jun-11 05:29N 51°53' E 004°17'0 0.0
2018-Jun-11 04:59N 51°53' E 004°17'0 0.0
2018-Jun-11 04:23N 51°53' E 004°17'0 0.0
2018-Jun-11 03:59N 51°53' E 004°17'0 0.0
2018-Jun-11 03:29N 51°53' E 004°17'0 0.0
2018-Jun-11 02:53N 51°53' E 004°17'0 0.0
2018-Jun-11 02:29N 51°53' E 004°17'0 0.0
2018-Jun-11 01:59N 51°53' E 004°17'0 0.0
2018-Jun-11 01:26N 51°53' E 004°17'0 0.0
2018-Jun-11 00:59N 51°53' E 004°17'0 0.0
2018-Jun-11 00:26N 51°53' E 004°17'0 0.0
2018-Jun-10 23:59N 51°53' E 004°17'0 0.0
2018-Jun-10 23:23N 51°53' E 004°17'0 0.0
2018-Jun-10 22:56N 51°53' E 004°17'0 0.0
2018-Jun-10 22:23N 51°53' E 004°17'0 0.0
2018-Jun-10 21:59N 51°53' E 004°17'0 0.0
2018-Jun-10 21:20N 51°53' E 004°17'0 0.0
2018-Jun-10 20:59N 51°53' E 004°17'0 0.0
2018-Jun-10 20:29N 51°53' E 004°17'0 0.0
2018-Jun-10 20:00N 51°53' E 004°17'0 0.0
2018-Jun-10 19:30N 51°53' E 004°17'0 0.0
2018-Jun-10 19:00N 51°53' E 004°17'1 2.1
2018-Jun-10 18:30N 51°54' E 004°18'4 8.0
2018-Jun-10 18:00N 51°56' E 004°13'4 8.0
2018-Jun-10 17:30N 51°58' E 004°08'4 7.9
2018-Jun-10 17:01N 51°60' E 004°02'4 8.7
2018-Jun-10 16:30N 52°01' E 003°55'4 9.0
2018-Jun-10 16:00N 52°02' E 003°48'611.3
2018-Jun-10 15:30N 52°08' E 003°47'611.0
2018-Jun-10 15:00N 52°14' E 003°47'1010.2
2018-Jun-10 14:00N 52°24' E 003°49'5 9.5
2018-Jun-10 13:30N 52°28' E 003°51'5 9.4
2018-Jun-10 13:00N 52°33' E 003°52'5710.3
2018-Jun-10 07:32N 53°24' E 004°33'011.9
2018-Jun-10 07:30N 53°24' E 004°33'611.5
2018-Jun-10 06:59N 53°30' E 004°36'511.4
2018-Jun-10 06:30N 53°35' E 004°39'610.9
2018-Jun-10 06:00N 53°40' E 004°42'8310.7
2018-Jun-09 22:17N 54°53' E 005°51'1610.9
2018-Jun-09 20:50N 55°06' E 006°06'410.8
2018-Jun-09 20:29N 55°09' E 006°09'5810.9
2018-Jun-09 15:07N 55°59' E 007°04'2310.7
2018-Jun-09 12:57N 56°19' E 007°24'510.5
2018-Jun-09 12:30N 56°23' E 007°29'6910.5
2018-Jun-09 05:59N 57°20' E 008°37'610.2
2018-Jun-09 05:26N 57°25' E 008°43'510.7
2018-Jun-09 05:00N 57°29' E 008°47'510.8
2018-Jun-09 04:30N 57°34' E 008°53'510.8
2018-Jun-09 04:00N 57°38' E 008°58'610.7
2018-Jun-09 03:28N 57°43' E 009°03'1710.5
2018-Jun-09 01:51N 57°58' E 009°20'411.0
2018-Jun-09 01:30N 58°01' E 009°24'611.1
2018-Jun-09 01:00N 58°05' E 009°30'510.9
2018-Jun-09 00:30N 58°10' E 009°36'510.4
2018-Jun-09 00:00N 58°15' E 009°41'510.2
2018-Jun-08 23:30N 58°19' E 009°46'510.3
2018-Jun-08 23:00N 58°23' E 009°51'510.3
2018-Jun-08 22:30N 58°28' E 009°56'510.6
2018-Jun-08 22:00N 58°32' E 010°01'510.6
2018-Jun-08 21:30N 58°37' E 010°06'510.6
2018-Jun-08 21:00N 58°41' E 010°11'510.7
2018-Jun-08 20:30N 58°45' E 010°18'510.9
2018-Jun-08 20:00N 58°50' E 010°24'510.8
2018-Jun-08 19:30N 58°55' E 010°29'510.6
2018-Jun-08 19:00N 58°59' E 010°34'510.9
2018-Jun-08 18:30N 59°05' E 010°36'510.5
2018-Jun-08 18:00N 59°10' E 010°38'510.4
2018-Jun-08 17:30N 59°15' E 010°36'510.4
2018-Jun-08 17:00N 59°20' E 010°35'510.5
2018-Jun-08 16:30N 59°25' E 010°33'510.4
2018-Jun-08 16:00N 59°30' E 010°27'510.0
2018-Jun-08 15:30N 59°34' E 010°25'5 9.6
2018-Jun-08 15:00N 59°39' E 010°24'510.1
2018-Jun-08 14:30N 59°43' E 010°18'2 4.5
2018-Jun-08 14:00N 59°45' E 010°15'0 0.1
2018-Jun-08 13:29N 59°45' E 010°15'0 0.0
2018-Jun-08 12:59N 59°45' E 010°15'0 0.0
2018-Jun-08 12:29N 59°45' E 010°15'0 0.0
2018-Jun-08 11:59N 59°45' E 010°15'  

Dump ship's entire track history